• Join FlightAware (Why Join?)
  • Login
  • US Flag 
Rudolph Flight #1: Arrived! 
04:52PM EST


 

Airport Tracker/Info


-or-


 

Live Flight TrackerFlight Track Log ✈ SVA1481 ✈ 10-Dec-2013 ✈ OERK / RUH - OEPA / AQI

Flight Track Log - Related Links

Times and Time Zones

All times are in EST time to prevent confusion due to time zone crossing. See the SVA1481 flight status page for this flight to view local times or setup timezone preferences in your user account.

Time Position Orientation Groundspeed Altitude Reporting Facility
EST Latitude Longitude Course Direction KTS MPH feet Rate Location/Type
10:41PM 25.7289 46.5707 351° North  Level Estimated
10:42PM 25.8253 46.5546 351° North  Level Estimated
10:43PM 25.9217 46.5385 351° North  Level Estimated
10:44PM 26.0181 46.5223 351° North  Level Estimated
10:45PM 26.1145 46.5061 351° North  Level Estimated
10:46PM 26.2109 46.4899 351° North  Level Estimated
10:47PM 26.3073 46.4736 351° North  Level Estimated
10:48PM 26.4037 46.4573 351° North  Level Estimated
10:49PM 26.5000 46.4410 351° North  Level Estimated
10:50PM 26.5964 46.4247 351° North  Level Estimated
10:51PM 26.6928 46.4083 351° North  Level Estimated
10:52PM 26.7892 46.3919 351° North  Level Estimated
10:53PM 26.8856 46.3755 351° North  Level Estimated
10:54PM 26.9820 46.3591 351° North  Level Estimated
10:55PM 27.0783 46.3426 351° North  Level Estimated
10:56PM 27.1747 46.3261 351° North  Level Estimated
10:57PM 27.2711 46.3096 351° North  Level Estimated
10:58PM 27.3674 46.2930 351° North  Level Estimated
10:59PM 27.4638 46.2764 351° North  Level Estimated
11:00PM 27.5602 46.2598 351° North  Level Estimated
11:01PM 27.6565 46.2432 351° North  Level Estimated
11:02PM 27.7529 46.2265 351° North  Level Estimated
11:03PM 27.8493 46.2098 351° North  Level Estimated
11:04PM 27.9456 46.1930 351° North  Level Estimated
11:05PM 28.0420 46.1763 351° North  Level Estimated
11:06PM 28.1383 46.1595 351° North  Level Estimated
11:07PM 28.2347 46.1427 351° North  Level Estimated
11:08PM 28.3310 46.1258 351° North  Level Estimated
11:09PM 28.3352 46.1251 351° North  Level Estimated
11:10PM 28.3352 46.1251 336° Northwest  Level Estimated
11:11PM 28.3352 46.1251 336° Northwest  Level Estimated
11:12PM 28.3352 46.1251 336° Northwest  Level Estimated
11:13PM 28.3352 46.1251 336° Northwest  Level Estimated
11:14PM 28.3352 46.1251 336° Northwest  Level Estimated
11:15PM 28.3352 46.1251 336° Northwest  Level Estimated
11:16PM 28.3352 46.1251 336° Northwest  Level Estimated
11:17PM 28.3352 46.1251 336° Northwest  Level Estimated
11:18PM 28.3352 46.1251 336° Northwest  Level Estimated
11:19PM 28.3352 46.1251 336° Northwest  Level Estimated
11:20PM 28.3352 46.1251 336° Northwest  Level Estimated
11:21PM 28.3352 46.1251 336° Northwest  Level Estimated
11:22PM 28.3352 46.1251 336° Northwest  Level Estimated